Time;durP1;ratioP1;P1;durP2;ratioP2;P2;SDS_P1;SDS_P2;PMS_P1;PMS_P2;Temp;Humidity;BMP_temperature;BMP_pressure;BME280_temperature;BME280_humidity;BME280_pressure;Samples;Min_cycle;Max_cycle;Signal;HPM_P1;HPM_P2
2023/12/21 00:00:06;;;;;;;6.00;2.20;;;;;;;;;;6186150;23;20084;-95
2023/12/21 00:02:31;;;;;;;16.35;2.83;;;;;;;;;;6185993;23;19997;-95
2023/12/21 00:04:57;;;;;;;10.57;3.40;;;;;;;;;;6186029;23;20008;-95
2023/12/21 00:07:22;;;;;;;6.32;2.53;;;;;;;;;;6185846;23;20420;-94
2023/12/21 00:09:48;;;;;;;6.57;2.53;;;;;;;;;;6185658;23;20016;-94
2023/12/21 00:12:13;;;;;;;10.15;2.65;;;;;;;;;;6185890;23;20079;-94
2023/12/21 00:14:38;;;;;;;7.93;2.83;;;;;;;;;;6185789;23;20001;-95
2023/12/21 00:17:03;;;;;;;6.03;2.70;;;;;;;;;;6185781;23;20075;-95
2023/12/21 00:19:29;;;;;;;5.78;2.70;;;;;;;;;;6185927;23;20051;-95
2023/12/21 00:21:54;;;;;;;7.15;2.15;;;;;;;;;;6185640;23;19997;-94
2023/12/21 00:24:20;;;;;;;7.60;2.65;;;;;;;;;;6185806;23;19993;-95
2023/12/21 00:26:45;;;;;;;7.78;2.92;;;;;;;;;;6185623;23;20055;-95
2023/12/21 00:29:10;;;;;;;7.85;3.10;;;;;;;;;;6185794;23;20060;-95
2023/12/21 00:31:35;;;;;;;12.73;2.60;;;;;;;;;;6186113;23;20008;-95
2023/12/21 00:34:01;;;;;;;13.95;2.60;;;;;;;;;;6186236;23;20354;-95
2023/12/21 00:36:26;;;;;;;6.07;1.98;;;;;;;;;;6185439;23;20088;-94
2023/12/21 00:38:51;;;;;;;6.22;2.28;;;;;;;;;;6185452;23;20012;-96
2023/12/21 00:41:16;;;;;;;5.40;2.05;;;;;;;;;;6185980;23;20306;-96
2023/12/21 00:43:42;;;;;;;11.88;1.80;;;;;;;;;;6185298;23;19997;-96
2023/12/21 00:46:07;;;;;;;8.00;1.88;;;;;;;;;;6185560;23;19997;-94
2023/12/21 00:48:32;;;;;;;9.52;1.55;;;;;;;;;;6185759;23;20008;-96
2023/12/21 00:50:58;;;;;;;16.17;2.70;;;;;;;;;;6186852;23;20416;-95
2023/12/21 00:53:24;;;;;;;8.13;2.55;;;;;;;;;;6185451;23;20001;-95
2023/12/21 00:55:49;;;;;;;8.82;1.60;;;;;;;;;;6185326;23;20088;-95
2023/12/21 00:58:15;;;;;;;14.05;1.35;;;;;;;;;;6186054;23;20008;-95
2023/12/21 01:00:40;;;;;;;9.48;1.20;;;;;;;;;;6185473;23;19997;-95
2023/12/21 01:03:05;;;;;;;4.60;2.00;;;;;;;;;;6185511;23;20457;-95
2023/12/21 01:05:30;;;;;;;8.15;1.30;;;;;;;;;;6185456;23;20008;-94
2023/12/21 01:07:56;;;;;;;5.80;1.40;;;;;;;;;;6185453;23;20001;-95
2023/12/21 01:10:21;;;;;;;11.55;2.33;;;;;;;;;;6185487;23;20013;-96
2023/12/21 01:12:46;;;;;;;12.20;1.77;;;;;;;;;;6185908;23;20364;-95
2023/12/21 01:15:12;;;;;;;4.03;1.20;;;;;;;;;;6185557;23;20008;-96
2023/12/21 01:17:37;;;;;;;6.38;1.45;;;;;;;;;;6185686;23;20047;-96
2023/12/21 01:20:03;;;;;;;5.25;1.77;;;;;;;;;;6185166;23;20004;-95
2023/12/21 01:22:28;;;;;;;8.18;1.45;;;;;;;;;;6185469;23;20017;-96
2023/12/21 01:24:53;;;;;;;13.60;1.63;;;;;;;;;;6185822;23;19989;-96
2023/12/21 01:27:20;;;;;;;9.27;1.52;;;;;;;;;;6185637;23;20031;-96
2023/12/21 01:29:46;;;;;;;6.47;1.63;;;;;;;;;;6185965;23;20107;-95
2023/12/21 01:32:11;;;;;;;9.07;1.25;;;;;;;;;;6185668;23;20032;-95
2023/12/21 01:34:36;;;;;;;10.27;1.35;;;;;;;;;;6185755;23;20005;-94
2023/12/21 01:37:01;;;;;;;6.05;1.42;;;;;;;;;;6185835;23;20005;-95
2023/12/21 01:39:27;;;;;;;7.25;1.80;;;;;;;;;;6185741;23;20065;-95
2023/12/21 01:41:52;;;;;;;8.05;1.20;;;;;;;;;;6185715;23;20007;-95
2023/12/21 01:44:17;;;;;;;4.95;1.02;;;;;;;;;;6185653;23;20001;-95
2023/12/21 01:46:43;;;;;;;10.07;1.58;;;;;;;;;;6185938;23;19992;-96
2023/12/21 01:49:09;;;;;;;7.53;1.75;;;;;;;;;;6185935;23;20001;-95
2023/12/21 01:51:34;;;;;;;7.55;1.35;;;;;;;;;;6185983;23;19997;-96
2023/12/21 01:54:03;;;;;;;11.10;1.98;;;;;;;;;;6185863;23;20052;-96
2023/12/21 01:56:28;;;;;;;7.80;1.27;;;;;;;;;;6185993;23;20001;-96
2023/12/21 01:58:54;;;;;;;11.85;1.92;;;;;;;;;;6186209;23;20072;-96
2023/12/21 02:01:19;;;;;;;7.05;2.22;;;;;;;;;;6187062;23;20004;-95
2023/12/21 02:03:45;;;;;;;8.75;2.05;;;;;;;;;;6185469;23;20000;-96
2023/12/21 02:06:10;;;;;;;16.40;2.20;;;;;;;;;;6185350;23;20037;-95
2023/12/21 02:08:36;;;;;;;7.97;2.65;;;;;;;;;;6185015;23;20051;-96
2023/12/21 02:11:06;;;;;;;11.05;2.35;;;;;;;;;;6185273;23;20457;-94
2023/12/21 02:13:31;;;;;;;5.90;1.98;;;;;;;;;;6186396;23;20428;-96
2023/12/21 02:15:57;;;;;;;8.60;1.63;;;;;;;;;;6184906;23;19997;-96
2023/12/21 02:18:23;;;;;;;9.10;1.83;;;;;;;;;;6184828;23;20005;-95
2023/12/21 02:20:49;;;;;;;8.85;2.67;;;;;;;;;;6185142;23;20001;-95
2023/12/21 02:23:16;;;;;;;7.93;1.98;;;;;;;;;;6185316;23;20063;-96
2023/12/21 02:25:41;;;;;;;9.88;1.90;;;;;;;;;;6185453;23;20005;-96
2023/12/21 02:28:07;;;;;;;9.35;2.30;;;;;;;;;;6185205;23;19997;-95
2023/12/21 02:30:33;;;;;;;13.70;2.65;;;;;;;;;;6185025;23;20001;-95
2023/12/21 02:32:58;;;;;;;8.77;2.05;;;;;;;;;;6184687;23;20500;-94
2023/12/21 02:35:24;;;;;;;14.50;2.42;;;;;;;;;;6184569;23;20001;-95
2023/12/21 02:37:49;;;;;;;11.18;2.70;;;;;;;;;;6184351;23;20033;-96
2023/12/21 02:40:14;;;;;;;6.85;1.90;;;;;;;;;;6184325;23;19997;-95
2023/12/21 02:42:39;;;;;;;13.75;2.80;;;;;;;;;;6184574;23;20317;-95
2023/12/21 02:45:05;;;;;;;7.15;2.33;;;;;;;;;;6184386;23;20121;-95
2023/12/21 02:47:30;;;;;;;9.95;2.10;;;;;;;;;;6185161;23;20308;-96
2023/12/21 02:49:55;;;;;;;9.20;2.22;;;;;;;;;;6184549;23;20368;-95
2023/12/21 02:52:21;;;;;;;16.60;2.40;;;;;;;;;;6184685;23;20076;-95
2023/12/21 02:54:46;;;;;;;14.90;2.10;;;;;;;;;;6184890;23;20436;-96
2023/12/21 02:57:11;;;;;;;15.02;2.97;;;;;;;;;;6184630;23;19993;-94
2023/12/21 02:59:36;;;;;;;13.98;3.17;;;;;;;;;;6184394;23;20013;-95
2023/12/21 03:02:02;;;;;;;11.98;2.33;;;;;;;;;;6184482;23;20023;-95
2023/12/21 03:04:27;;;;;;;13.25;2.47;;;;;;;;;;6184375;23;20004;-96
2023/12/21 03:06:53;;;;;;;10.88;2.47;;;;;;;;;;6184846;23;19997;-96
2023/12/21 03:09:19;;;;;;;11.68;2.08;;;;;;;;;;6184443;23;20381;-96
2023/12/21 03:11:44;;;;;;;13.70;2.03;;;;;;;;;;6183991;23;20001;-94
2023/12/21 03:14:09;;;;;;;11.82;2.13;;;;;;;;;;6184487;23;20009;-95
2023/12/21 03:16:35;;;;;;;14.70;2.38;;;;;;;;;;6184821;23;20421;-94
2023/12/21 03:19:00;;;;;;;14.13;2.38;;;;;;;;;;6184832;23;20001;-95
2023/12/21 03:21:25;;;;;;;7.28;2.50;;;;;;;;;;6185484;23;20009;-95
2023/12/21 03:23:51;;;;;;;15.88;2.92;;;;;;;;;;6186571;23;20004;-95
2023/12/21 03:26:16;;;;;;;11.95;2.35;;;;;;;;;;6186431;23;20004;-96
2023/12/21 03:28:44;;;;;;;17.52;2.88;;;;;;;;;;6186088;23;20001;-96
2023/12/21 03:31:09;;;;;;;16.63;2.53;;;;;;;;;;6186388;23;20119;-96
2023/12/21 03:33:35;;;;;;;15.13;2.33;;;;;;;;;;6186503;23;20037;-95
2023/12/21 03:36:00;;;;;;;17.75;2.47;;;;;;;;;;6186375;23;20008;-94
2023/12/21 03:38:25;;;;;;;11.88;2.40;;;;;;;;;;6186184;23;20476;-94
2023/12/21 03:40:51;;;;;;;20.55;2.30;;;;;;;;;;6186652;23;20009;-95
2023/12/21 03:43:16;;;;;;;12.02;1.98;;;;;;;;;;6186596;23;20001;-94
2023/12/21 03:45:41;;;;;;;11.90;1.95;;;;;;;;;;6186389;23;19997;-96
2023/12/21 03:48:08;;;;;;;15.68;2.88;;;;;;;;;;6186745;23;20023;-94
2023/12/21 03:50:33;;;;;;;10.77;2.03;;;;;;;;;;6186583;23;20004;-95
2023/12/21 03:52:58;;;;;;;16.10;2.33;;;;;;;;;;6186820;23;20023;-95
2023/12/21 03:55:23;;;;;;;16.67;2.35;;;;;;;;;;6187081;23;20012;-96
2023/12/21 03:57:49;;;;;;;10.80;1.60;;;;;;;;;;6186563;23;20005;-96
2023/12/21 04:00:18;;;;;;;9.98;1.70;;;;;;;;;;6186927;23;19997;-95
2023/12/21 04:02:43;;;;;;;20.85;2.53;;;;;;;;;;6187245;23;20507;-96
2023/12/21 04:05:08;;;;;;;13.98;2.15;;;;;;;;;;6187878;23;20036;-96
2023/12/21 04:07:34;;;;;;;10.55;1.77;;;;;;;;;;6187798;23;20092;-96
2023/12/21 04:09:59;;;;;;;19.10;3.13;;;;;;;;;;6187775;23;20062;-96
2023/12/21 04:12:24;;;;;;;12.45;2.95;;;;;;;;;;6187714;23;20033;-95
2023/12/21 04:14:50;;;;;;;14.38;2.80;;;;;;;;;;6186865;23;19997;-94
2023/12/21 04:17:15;;;;;;;13.98;1.92;;;;;;;;;;6187369;23;20067;-95
2023/12/21 04:19:40;;;;;;;14.43;1.85;;;;;;;;;;6187553;23;20414;-96
2023/12/21 04:22:05;;;;;;;10.95;1.77;;;;;;;;;;6187005;23;19997;-95
2023/12/21 04:24:31;;;;;;;19.23;2.85;;;;;;;;;;6187317;23;19997;-95
2023/12/21 04:26:56;;;;;;;17.02;2.63;;;;;;;;;;6188866;23;20071;-96
2023/12/21 04:29:21;;;;;;;15.95;2.03;;;;;;;;;;6188361;23;20028;-95
2023/12/21 04:31:47;;;;;;;11.43;2.25;;;;;;;;;;6187857;23;20001;-95
2023/12/21 04:34:12;;;;;;;11.07;1.70;;;;;;;;;;6187376;23;20013;-96
2023/12/21 04:36:37;;;;;;;9.65;2.25;;;;;;;;;;6186555;23;20059;-95
2023/12/21 04:39:03;;;;;;;10.32;2.38;;;;;;;;;;6186436;23;20106;-96
2023/12/21 04:41:28;;;;;;;13.63;3.58;;;;;;;;;;6187183;23;19997;-96
2023/12/21 04:43:54;;;;;;;17.08;2.72;;;;;;;;;;6185902;23;20012;-95
2023/12/21 04:46:19;;;;;;;12.43;1.77;;;;;;;;;;6186398;23;19997;-96
2023/12/21 04:48:45;;;;;;;9.57;2.03;;;;;;;;;;6186149;23;20005;-96
2023/12/21 04:51:17;;;;;;;12.27;2.55;;;;;;;;;;6186040;23;20008;-95
2023/12/21 04:53:43;;;;;;;15.40;2.60;;;;;;;;;;6186548;23;20417;-95
2023/12/21 04:56:08;;;;;;;10.45;2.40;;;;;;;;;;6185813;23;20052;-95
2023/12/21 04:58:34;;;;;;;7.45;2.15;;;;;;;;;;6185735;23;20143;-95
2023/12/21 05:00:59;;;;;;;21.10;2.65;;;;;;;;;;6185933;23;19993;-95
2023/12/21 05:03:24;;;;;;;15.50;2.58;;;;;;;;;;6186188;23;20012;-95
2023/12/21 05:05:49;;;;;;;11.80;3.00;;;;;;;;;;6185557;23;20373;-95
2023/12/21 05:08:15;;;;;;;15.48;2.55;;;;;;;;;;6185996;23;19997;-96
2023/12/21 05:10:40;;;;;;;15.50;2.83;;;;;;;;;;6185784;23;20005;-96
2023/12/21 05:13:05;;;;;;;9.75;1.98;;;;;;;;;;6186394;23;20036;-95
2023/12/21 05:15:31;;;;;;;16.63;3.30;;;;;;;;;;6185954;23;20094;-96
2023/12/21 05:17:56;;;;;;;9.73;2.95;;;;;;;;;;6186272;23;20001;-95
2023/12/21 05:20:21;;;;;;;9.85;2.67;;;;;;;;;;6185829;23;20075;-95
2023/12/21 05:22:46;;;;;;;8.90;2.83;;;;;;;;;;6186408;23;20012;-95
2023/12/21 05:25:16;;;;;;;12.45;1.80;;;;;;;;;;6186458;23;20413;-96
2023/12/21 05:27:41;;;;;;;18.42;2.58;;;;;;;;;;6186599;23;20297;-96
2023/12/21 05:30:06;;;;;;;11.68;1.83;;;;;;;;;;6186832;23;20084;-95
2023/12/21 05:32:32;;;;;;;14.32;2.58;;;;;;;;;;6187521;23;20037;-96
2023/12/21 05:34:57;;;;;;;11.82;2.13;;;;;;;;;;6186992;23;20008;-95
2023/12/21 05:37:22;;;;;;;16.67;2.10;;;;;;;;;;6187156;23;20052;-95
2023/12/21 05:39:49;;;;;;;10.52;2.88;;;;;;;;;;6187078;23;20437;-94
2023/12/21 05:42:14;;;;;;;10.55;1.95;;;;;;;;;;6186651;23;20064;-95
2023/12/21 05:44:40;;;;;;;10.27;2.10;;;;;;;;;;6192830;23;19993;-96
2023/12/21 05:47:05;;;;;;;11.93;1.85;;;;;;;;;;6204654;23;20024;-96
2023/12/21 05:49:31;;;;;;;14.15;2.50;;;;;;;;;;6203348;23;20001;-96
2023/12/21 05:51:56;;;;;;;14.82;2.30;;;;;;;;;;6205511;23;20421;-96
2023/12/21 05:54:22;;;;;;;10.20;2.30;;;;;;;;;;6205645;23;20053;-96
2023/12/21 05:56:47;;;;;;;12.75;1.88;;;;;;;;;;6204637;23;20005;-96
2023/12/21 05:59:13;;;;;;;5.68;1.77;;;;;;;;;;6204883;23;20048;-96
2023/12/21 06:01:39;;;;;;;9.88;2.58;;;;;;;;;;6205567;23;20057;-96
2023/12/21 06:04:04;;;;;;;14.45;2.15;;;;;;;;;;6204708;23;20012;-96
2023/12/21 06:06:30;;;;;;;11.90;1.83;;;;;;;;;;6205376;23;20032;-96
2023/12/21 06:08:55;;;;;;;11.10;2.00;;;;;;;;;;6205152;23;20021;-96
2023/12/21 06:11:22;;;;;;;11.02;2.10;;;;;;;;;;6204765;23;20072;-96
2023/12/21 06:13:47;;;;;;;10.93;1.80;;;;;;;;;;6206314;23;20001;-96
2023/12/21 06:16:14;;;;;;;9.52;2.08;;;;;;;;;;6204778;23;20001;-96
2023/12/21 06:18:42;;;;;;;10.07;2.05;;;;;;;;;;6206364;23;20083;-96
2023/12/21 06:21:07;;;;;;;9.80;1.70;;;;;;;;;;6204097;23;19997;-96
2023/12/21 06:23:33;;;;;;;10.55;2.08;;;;;;;;;;6204930;23;20100;-96
2023/12/21 06:26:00;;;;;;;11.07;2.08;;;;;;;;;;6204497;23;20001;-96
2023/12/21 06:28:26;;;;;;;8.18;1.50;;;;;;;;;;6203330;23;19997;-96
2023/12/21 06:30:51;;;;;;;9.13;2.28;;;;;;;;;;6204606;23;20017;-96
2023/12/21 06:33:17;;;;;;;9.95;1.52;;;;;;;;;;6178602;23;19990;-96
2023/12/21 06:35:42;;;;;;;10.85;2.20;;;;;;;;;;6203254;23;20017;-96
2023/12/21 06:38:08;;;;;;;17.20;1.88;;;;;;;;;;6202566;23;19997;-96
2023/12/21 06:40:33;;;;;;;12.80;2.00;;;;;;;;;;6200607;23;20001;-96
2023/12/21 06:42:58;;;;;;;9.45;1.55;;;;;;;;;;6204211;23;20053;-96
2023/12/21 06:45:25;;;;;;;5.88;0.70;;;;;;;;;;6204151;23;20039;-96
2023/12/21 06:47:52;;;;;;;5.90;1.67;;;;;;;;;;6206397;23;20021;-96
2023/12/21 06:50:19;;;;;;;9.98;1.55;;;;;;;;;;6207240;23;20028;-96
2023/12/21 06:52:48;;;;;;;8.43;1.77;;;;;;;;;;6206463;23;19993;-96
2023/12/21 06:55:14;;;;;;;10.52;1.50;;;;;;;;;;6208645;23;19997;-96
2023/12/21 06:57:40;;;;;;;10.20;1.85;;;;;;;;;;6207433;23;20004;-96
2023/12/21 07:00:06;;;;;;;15.88;2.08;;;;;;;;;;6205425;23;20083;-96
2023/12/21 07:02:34;;;;;;;13.35;1.95;;;;;;;;;;6180864;23;20021;-95
2023/12/21 07:05:20;;;;;;;5.82;1.25;;;;;;;;;;6124973;23;20425;-94
2023/12/21 07:08:16;;;;;;;;;;;;;;;;;;;;;
2023/12/21 07:10:44;;;;;;;10.77;1.80;;;;;;;;;;6129103;23;20093;-96
2023/12/21 07:13:11;;;;;;;5.53;0.82;;;;;;;;;;6126194;23;20006;-95
2023/12/21 07:15:37;;;;;;;12.13;2.53;;;;;;;;;;6131003;23;20036;-96
2023/12/21 07:18:22;;;;;;;3.60;1.40;;;;;;;;;;6127786;23;19998;-95
2023/12/21 07:27:22;;;;;;;;;;;;;;;;;;;;;
2023/12/21 07:36:07;;;;;;;;;;;;;;;;;;;;;
2023/12/21 07:38:54;;;;;;;4.57;0.82;;;;;;;;;;6069740;23;20087;-96
2023/12/21 07:51:14;;;;;;;3.35;0.82;;;;;;;;;;5966255;23;20046;-96
2023/12/21 07:54:04;;;;;;;9.30;1.33;;;;;;;;;;6050058;23;20453;-96
2023/12/21 07:56:31;;;;;;;7.93;0.98;;;;;;;;;;6050205;23;20043;-95
2023/12/21 07:58:56;;;;;;;8.82;1.42;;;;;;;;;;6088805;23;20010;-95
2023/12/21 08:01:30;;;;;;;5.57;1.20;;;;;;;;;;6129328;23;20005;-96
2023/12/21 08:03:59;;;;;;;2.30;0.63;;;;;;;;;;6124675;23;20018;-96
2023/12/21 08:06:31;;;;;;;4.03;0.70;;;;;;;;;;6128403;23;20006;-96
2023/12/21 08:09:17;;;;;;;6.55;1.25;;;;;;;;;;6131400;23;20009;-96
2023/12/21 08:11:53;;;;;;;6.40;1.10;;;;;;;;;;6128644;23;20005;-95
2023/12/21 08:14:19;;;;;;;6.97;1.13;;;;;;;;;;6131883;23;20006;-96
2023/12/21 08:16:49;;;;;;;7.35;1.45;;;;;;;;;;6131316;23;19998;-96
2023/12/21 08:19:15;;;;;;;6.30;1.15;;;;;;;;;;6129382;23;20041;-95
2023/12/21 08:21:40;;;;;;;4.43;1.25;;;;;;;;;;6129112;23;19999;-96
2023/12/21 08:24:05;;;;;;;8.68;1.25;;;;;;;;;;6126206;23;20006;-96
2023/12/21 08:26:31;;;;;;;7.60;1.25;;;;;;;;;;6124822;23;20005;-95
2023/12/21 08:28:57;;;;;;;4.47;1.00;;;;;;;;;;6124592;23;20318;-96
2023/12/21 08:31:25;;;;;;;6.13;1.20;;;;;;;;;;6126637;23;20414;-95
2023/12/21 08:33:53;;;;;;;5.97;1.52;;;;;;;;;;6132899;23;20438;-96
2023/12/21 08:36:42;;;;;;;6.97;1.42;;;;;;;;;;6128518;23;19998;-96
2023/12/21 08:39:27;;;;;;;4.28;1.30;;;;;;;;;;6142470;23;20006;-96
2023/12/21 08:41:53;;;;;;;3.83;1.23;;;;;;;;;;6155762;23;19994;-96
2023/12/21 08:44:21;;;;;;;4.15;1.45;;;;;;;;;;6131803;23;20044;-96
2023/12/21 08:46:46;;;;;;;5.20;1.40;;;;;;;;;;6134982;23;20006;-96
2023/12/21 08:49:12;;;;;;;5.70;1.50;;;;;;;;;;6133205;23;20013;-96
2023/12/21 08:51:41;;;;;;;9.85;1.40;;;;;;;;;;6126584;23;20057;-95
2023/12/21 08:54:09;;;;;;;5.68;1.27;;;;;;;;;;6127636;23;20455;-96
2023/12/21 08:56:50;;;;;;;9.38;1.70;;;;;;;;;;6128149;23;20507;-96
2023/12/21 08:59:18;;;;;;;4.13;1.40;;;;;;;;;;6124701;23;20006;-96
2023/12/21 09:01:43;;;;;;;7.22;1.52;;;;;;;;;;6123881;23;20002;-96
2023/12/21 09:04:09;;;;;;;4.78;1.38;;;;;;;;;;6129391;23;20010;-96
2023/12/21 09:06:36;;;;;;;6.15;1.20;;;;;;;;;;6124705;23;20037;-96
2023/12/21 09:09:02;;;;;;;8.70;1.70;;;;;;;;;;6124601;23;20148;-95
2023/12/21 09:11:28;;;;;;;6.47;1.40;;;;;;;;;;6124777;23;20021;-95
2023/12/21 09:13:57;;;;;;;6.93;1.55;;;;;;;;;;6123596;23;20013;-95
2023/12/21 09:16:32;;;;;;;7.75;1.92;;;;;;;;;;6123383;23;20081;-95
2023/12/21 09:18:58;;;;;;;5.65;1.33;;;;;;;;;;6123747;23;20013;-96
2023/12/21 09:21:23;;;;;;;4.25;1.25;;;;;;;;;;6124211;23;20002;-96
2023/12/21 09:23:51;;;;;;;5.03;1.10;;;;;;;;;;6126067;23;20395;-96
2023/12/21 09:26:17;;;;;;;2.13;1.00;;;;;;;;;;6100990;23;20013;-96
2023/12/21 09:28:42;;;;;;;6.22;1.33;;;;;;;;;;6126555;23;20002;-96
2023/12/21 09:31:12;;;;;;;4.28;1.25;;;;;;;;;;6123599;23;20033;-95
2023/12/21 09:33:39;;;;;;;5.65;1.20;;;;;;;;;;6123826;23;20081;-95
2023/12/21 09:36:10;;;;;;;5.32;1.23;;;;;;;;;;6124680;23;20069;-95
2023/12/21 09:38:37;;;;;;;7.13;1.35;;;;;;;;;;6122967;23;20006;-96
2023/12/21 09:41:03;;;;;;;3.60;1.13;;;;;;;;;;6129381;23;20002;-96
2023/12/21 09:43:30;;;;;;;7.05;1.05;;;;;;;;;;6128176;23;20073;-95
2023/12/21 09:45:57;;;;;;;3.22;1.15;;;;;;;;;;6132187;23;20009;-95
2023/12/21 09:48:25;;;;;;;6.38;1.10;;;;;;;;;;6126082;23;19998;-96
2023/12/21 09:51:02;;;;;;;6.38;1.48;;;;;;;;;;6125262;23;20008;-95
2023/12/21 09:53:35;;;;;;;3.95;1.05;;;;;;;;;;6126553;23;20021;-96
2023/12/21 09:56:01;;;;;;;6.75;0.95;;;;;;;;;;6128828;23;20009;-95
2023/12/21 09:58:37;;;;;;;;;;;;;;;;;;;;;
2023/12/21 10:01:13;;;;;;;7.65;0.95;;;;;;;;;;6130712;23;20084;-95
2023/12/21 10:03:43;;;;;;;2.92;1.10;;;;;;;;;;6127961;23;20021;-95
2023/12/21 10:06:13;;;;;;;2.35;0.90;;;;;;;;;;6128516;23;20006;-96
2023/12/21 10:08:47;;;;;;;2.97;0.93;;;;;;;;;;6129859;23;20006;-95
2023/12/21 10:11:41;;;;;;;2.53;0.63;;;;;;;;;;6127436;23;20000;-95
2023/12/21 10:14:29;;;;;;;3.92;0.82;;;;;;;;;;6129931;23;20002;-95
2023/12/21 10:16:57;;;;;;;4.28;0.90;;;;;;;;;;6154753;23;20009;-95
2023/12/21 10:19:22;;;;;;;11.35;1.27;;;;;;;;;;6123541;23;20787;-95
2023/12/21 10:21:55;;;;;;;4.25;0.73;;;;;;;;;;6120899;23;20010;-96
2023/12/21 10:24:25;;;;;;;1.63;0.70;;;;;;;;;;6124529;23;20006;-96
2023/12/21 10:26:53;;;;;;;6.35;1.05;;;;;;;;;;6123768;23;20024;-95
2023/12/21 10:29:21;;;;;;;4.43;1.00;;;;;;;;;;6125613;23;20006;-96
2023/12/21 10:32:05;;;;;;;;;;;;;;;;;;;;;
2023/12/21 10:34:40;;;;;;;4.57;1.02;;;;;;;;;;6126120;23;20049;-96
2023/12/21 10:37:07;;;;;;;1.10;0.82;;;;;;;;;;6122209;23;20829;-96
2023/12/21 10:39:34;;;;;;;3.35;0.88;;;;;;;;;;6126202;23;20013;-96
2023/12/21 10:42:02;;;;;;;6.32;1.00;;;;;;;;;;6124565;23;20002;-96
2023/12/21 10:44:28;;;;;;;5.97;1.27;;;;;;;;;;6123785;23;20362;-95
2023/12/21 10:47:03;;;;;;;1.92;0.90;;;;;;;;;;6125701;23;19998;-95
2023/12/21 10:49:28;;;;;;;3.63;1.13;;;;;;;;;;6124049;23;19998;-95
2023/12/21 10:52:00;;;;;;;3.20;0.90;;;;;;;;;;6124033;23;20004;-96
2023/12/21 10:58:06;;;;;;;;;;;;;;;;;;;;;
2023/12/21 11:00:37;;;;;;;4.30;0.98;;;;;;;;;;6127886;23;20102;-96
2023/12/21 11:15:46;;;;;;;;;;;;;;;;;;;;;
2023/12/21 11:26:11;;;;;;;1.77;0.63;;;;;;;;;;6183087;23;20062;-96
2023/12/21 11:29:13;;;;;;;;;;;;;;;;;;;;;
2023/12/21 11:31:43;;;;;;;7.20;0.83;;;;;;;;;;6213443;23;20104;-96
2023/12/21 11:34:23;;;;;;;2.28;0.70;;;;;;;;;;6187243;23;20995;-96
2023/12/21 11:37:17;;;;;;;2.95;1.00;;;;;;;;;;6185800;23;20084;-96
2023/12/21 11:39:53;;;;;;;2.28;1.13;;;;;;;;;;6185788;23;20004;-96
2023/12/21 11:42:41;;;;;;;3.78;1.00;;;;;;;;;;6187481;23;20036;-96
2023/12/21 11:58:22;;;;;;;;;;;;;;;;;;;;;
2023/12/21 12:04:27;;;;;;;2.45;0.90;;;;;;;;;;6049149;23;20104;-96
2023/12/21 12:07:22;;;;;;;1.38;0.80;;;;;;;;;;6152694;23;20025;-96
2023/12/21 12:10:10;;;;;;;3.85;0.70;;;;;;;;;;6140842;23;20325;-96
2023/12/21 12:13:17;;;;;;;;;;;;;;;;;;;;;
2023/12/21 12:25:15;;;;;;;;;;;;;;;;;;;;;
2023/12/21 12:28:27;;;;;;;;;;;;;;;;;;;;;
2023/12/21 13:46:56;;;;;;;2.88;0.98;;;;;;;;;;6165401;23;20036;-96
2023/12/21 13:57:36;;;;;;;5.50;1.10;;;;;;;;;;6181642;23;20033;-96
2023/12/21 14:03:23;;;;;;;7.15;1.10;;;;;;;;;;6091614;23;20021;-96
2023/12/21 14:05:52;;;;;;;1.00;0.45;;;;;;;;;;6066178;23;20043;-96
2023/12/21 14:08:19;;;;;;;3.03;1.00;;;;;;;;;;6067905;23;20014;-96
2023/12/21 14:10:58;;;;;;;1.83;0.40;;;;;;;;;;6065813;23;20002;-96
2023/12/21 14:13:24;;;;;;;8.70;1.20;;;;;;;;;;6063217;23;20089;-96
2023/12/21 14:15:49;;;;;;;2.78;0.52;;;;;;;;;;6064589;23;19995;-96
2023/12/21 14:18:15;;;;;;;5.75;0.85;;;;;;;;;;6063914;23;20062;-96
2023/12/21 14:20:41;;;;;;;5.97;1.02;;;;;;;;;;6064626;23;20022;-96
2023/12/21 14:23:07;;;;;;;7.78;1.23;;;;;;;;;;6064905;23;20011;-96
2023/12/21 14:25:39;;;;;;;2.20;0.82;;;;;;;;;;6064723;23;20006;-96
2023/12/21 14:28:13;;;;;;;5.85;0.88;;;;;;;;;;6089889;23;20014;-96
2023/12/21 14:30:47;;;;;;;3.30;0.80;;;;;;;;;;6088874;23;20009;-96
2023/12/21 14:33:18;;;;;;;6.43;1.33;;;;;;;;;;6179471;23;20009;-96
2023/12/21 14:35:44;;;;;;;5.95;1.10;;;;;;;;;;6153642;23;20005;-96
2023/12/21 14:38:15;;;;;;;4.15;0.80;;;;;;;;;;6153927;23;20020;-96
2023/12/21 14:40:51;;;;;;;2.92;0.93;;;;;;;;;;6154103;23;20000;-96
2023/12/21 14:43:17;;;;;;;4.97;1.05;;;;;;;;;;6153336;23;20008;-96
2023/12/21 14:45:42;;;;;;;1.25;0.52;;;;;;;;;;6150326;23;20081;-96
2023/12/21 14:48:08;;;;;;;5.10;0.55;;;;;;;;;;6148345;23;20005;-96
2023/12/21 14:50:33;;;;;;;0.82;0.30;;;;;;;;;;6146696;23;20033;-96
2023/12/21 14:52:58;;;;;;;6.10;0.70;;;;;;;;;;6146746;23;19993;-96
2023/12/21 14:55:24;;;;;;;4.40;0.60;;;;;;;;;;6152036;23;20088;-96
2023/12/21 14:57:49;;;;;;;3.17;0.45;;;;;;;;;;6172961;23;20019;-96
2023/12/21 15:00:16;;;;;;;6.90;0.77;;;;;;;;;;6176912;23;20001;-96
2023/12/21 15:02:42;;;;;;;3.25;0.57;;;;;;;;;;6178331;23;19997;-96
2023/12/21 15:05:08;;;;;;;3.95;0.55;;;;;;;;;;6175241;23;20056;-96
2023/12/21 15:07:37;;;;;;;4.22;1.02;;;;;;;;;;6176514;23;20005;-96
2023/12/21 15:10:03;;;;;;;3.35;0.93;;;;;;;;;;6175632;23;19989;-96
2023/12/21 15:12:28;;;;;;;1.60;0.52;;;;;;;;;;6176132;23;20001;-96
2023/12/21 15:14:53;;;;;;;1.98;0.50;;;;;;;;;;6175960;23;20005;-96
2023/12/21 15:17:22;;;;;;;3.15;0.32;;;;;;;;;;6181062;23;20082;-96
2023/12/21 15:19:47;;;;;;;3.08;0.77;;;;;;;;;;6181206;23;20031;-96
2023/12/21 15:22:15;;;;;;;4.13;0.60;;;;;;;;;;6181982;23;20069;-96
2023/12/21 15:24:53;;;;;;;1.73;0.47;;;;;;;;;;6182226;23;20004;-96
2023/12/21 15:29:54;;;;;;;4.10;0.60;;;;;;;;;;6151923;23;20017;-96
2023/12/21 15:32:22;;;;;;;8.55;0.60;;;;;;;;;;6143445;23;19998;-96
2023/12/21 15:34:47;;;;;;;2.38;0.40;;;;;;;;;;6140352;23;20002;-96
2023/12/21 15:37:13;;;;;;;4.07;0.55;;;;;;;;;;6140764;23;20013;-96
2023/12/21 15:39:43;;;;;;;1.58;0.30;;;;;;;;;;6137258;23;20083;-96
2023/12/21 15:42:09;;;;;;;6.95;0.40;;;;;;;;;;6139744;23;20418;-96
2023/12/21 15:44:36;;;;;;;7.43;1.00;;;;;;;;;;6140038;23;20085;-96
2023/12/21 15:47:02;;;;;;;4.47;0.50;;;;;;;;;;6141860;23;20006;-96
2023/12/21 15:49:28;;;;;;;3.22;0.50;;;;;;;;;;6141554;23;19998;-96
2023/12/21 15:51:53;;;;;;;2.25;0.30;;;;;;;;;;6139840;23;20017;-96
2023/12/21 15:54:20;;;;;;;2.58;0.60;;;;;;;;;;6142757;23;20084;-96
2023/12/21 15:56:46;;;;;;;7.93;1.10;;;;;;;;;;6143964;23;20017;-96
2023/12/21 15:59:33;;;;;;;4.95;0.55;;;;;;;;;;6140638;23;20009;-96
2023/12/21 16:02:02;;;;;;;0.65;0.17;;;;;;;;;;6139877;23;20077;-96
2023/12/21 16:04:30;;;;;;;3.83;0.70;;;;;;;;;;6141741;23;20002;-96
2023/12/21 16:07:34;;;;;;;2.25;0.68;;;;;;;;;;6113060;23;19999;-96
2023/12/21 16:10:00;;;;;;;4.68;0.63;;;;;;;;;;6107897;23;20018;-96
2023/12/21 16:12:25;;;;;;;7.57;0.88;;;;;;;;;;6110435;23;19990;-96
2023/12/21 16:14:51;;;;;;;6.20;1.33;;;;;;;;;;6109659;23;20049;-96
2023/12/21 16:17:22;;;;;;;8.50;0.82;;;;;;;;;;6111260;23;20054;-96
2023/12/21 16:19:54;;;;;;;9.00;1.35;;;;;;;;;;6112864;23;20426;-96
2023/12/21 16:22:19;;;;;;;2.07;0.63;;;;;;;;;;6089502;23;20114;-96
2023/12/21 16:24:45;;;;;;;4.65;1.10;;;;;;;;;;6106065;23;20225;-96
2023/12/21 16:27:10;;;;;;;7.13;1.08;;;;;;;;;;6107466;23;20013;-96
2023/12/21 16:29:40;;;;;;;8.60;0.93;;;;;;;;;;6120594;23;20010;-96
2023/12/21 16:32:06;;;;;;;9.43;1.10;;;;;;;;;;6134862;23;20009;-96
2023/12/21 16:34:36;;;;;;;4.75;1.02;;;;;;;;;;6134839;23;20002;-95
2023/12/21 16:37:01;;;;;;;4.25;0.88;;;;;;;;;;6135686;23;20038;-96
2023/12/21 16:39:26;;;;;;;2.55;0.60;;;;;;;;;;6134756;23;20445;-96
2023/12/21 16:41:52;;;;;;;3.03;0.55;;;;;;;;;;6136044;23;20009;-96
2023/12/21 16:44:17;;;;;;;4.55;0.90;;;;;;;;;;6136197;23;20001;-96
2023/12/21 16:46:42;;;;;;;7.80;1.05;;;;;;;;;;6134671;23;20081;-95
2023/12/21 16:49:08;;;;;;;3.50;0.68;;;;;;;;;;6135919;23;20006;-96
2023/12/21 16:51:39;;;;;;;4.85;0.50;;;;;;;;;;6134967;23;20057;-95
2023/12/21 16:54:05;;;;;;;1.83;0.43;;;;;;;;;;6134375;23;19989;-96
2023/12/21 16:56:31;;;;;;;8.75;1.10;;;;;;;;;;6144405;23;20061;-96
2023/12/21 16:58:56;;;;;;;0.55;0.30;;;;;;;;;;6144874;23;20001;-96
2023/12/21 17:01:23;;;;;;;2.35;0.63;;;;;;;;;;6142985;23;20048;-96
2023/12/21 17:03:48;;;;;;;7.88;0.63;;;;;;;;;;6143021;23;20040;-96
2023/12/21 17:06:17;;;;;;;2.92;0.60;;;;;;;;;;6138616;23;19990;-96
2023/12/21 17:08:59;;;;;;;2.13;0.65;;;;;;;;;;6147514;23;19998;-96
2023/12/21 17:11:27;;;;;;;5.25;1.20;;;;;;;;;;6147277;23;19994;-96
2023/12/21 17:13:52;;;;;;;9.23;1.05;;;;;;;;;;6144644;23;19998;-96
2023/12/21 17:16:22;;;;;;;3.20;0.50;;;;;;;;;;6146223;23;19998;-96
2023/12/21 17:21:33;;;;;;;8.05;1.02;;;;;;;;;;6164452;23;19913;-96
2023/12/21 17:27:11;;;;;;;2.75;0.85;;;;;;;;;;6093195;23;20025;-96
2023/12/21 17:29:48;;;;;;;9.50;0.98;;;;;;;;;;6150177;23;19990;-96
2023/12/21 17:32:16;;;;;;;6.07;1.17;;;;;;;;;;6125454;23;20004;-96
2023/12/21 17:34:44;;;;;;;2.42;0.45;;;;;;;;;;6101773;23;20013;-96
2023/12/21 17:37:17;;;;;;;8.48;0.70;;;;;;;;;;6149287;23;20016;-96
2023/12/21 17:39:43;;;;;;;8.35;0.75;;;;;;;;;;6119433;23;20007;-96
2023/12/21 18:05:24;;;;;;;7.35;1.23;;;;;;;;;;6146943;23;20022;-96
2023/12/21 18:07:50;;;;;;;6.15;1.23;;;;;;;;;;6118055;23;20050;-95